Time;durP1;ratioP1;P1;durP2;ratioP2;P2;SDS_P1;SDS_P2;PMS_P1;PMS_P2;Temp;Humidity;BMP_temperature;BMP_pressure;BME280_temperature;BME280_humidity;BME280_pressure;Samples;Min_cycle;Max_cycle;Signal;HPM_P1;HPM_P2
2021/11/20 00:02:05;;;;;;;3.70;2.35;;;;;;;3.58;71.12;97324.97;5054864;28;20044;-54
2021/11/20 00:04:32;;;;;;;2.83;2.22;;;;;;;3.56;71.48;97308.41;5066317;28;20098;-57
2021/11/20 00:07:03;;;;;;;3.70;1.92;;;;;;;3.59;71.08;97305.47;5048231;28;20066;-57
2021/11/20 00:09:29;;;;;;;2.25;1.73;;;;;;;3.59;71.41;97297.53;5058836;28;20108;-57
2021/11/20 00:12:00;;;;;;;2.95;2.10;;;;;;;3.66;71.00;97286.41;5067546;28;20060;-57
2021/11/20 00:14:27;;;;;;;2.60;1.90;;;;;;;3.66;71.63;97281.13;5029955;28;20033;-57
2021/11/20 00:16:55;;;;;;;2.28;2.00;;;;;;;3.65;71.52;97274.16;5032652;28;20034;-58
2021/11/20 00:19:23;;;;;;;3.83;2.45;;;;;;;3.68;71.05;97269.38;5031881;28;20029;-55
2021/11/20 00:21:54;;;;;;;2.92;2.05;;;;;;;3.68;71.63;97252.69;5031791;28;20033;-59
2021/11/20 00:24:24;;;;;;;4.05;2.30;;;;;;;3.45;71.26;97210.69;5031775;28;20033;-54
2021/11/20 00:26:51;;;;;;;2.65;2.08;;;;;;;3.68;71.47;97239.47;5032970;28;20030;-56
2021/11/20 00:29:20;;;;;;;2.10;1.67;;;;;;;3.67;70.43;97213.97;5031337;28;20046;-54
2021/11/20 00:31:59;;;;;;;2.85;1.92;;;;;;;3.77;70.97;97212.13;5032038;28;20037;-53
2021/11/20 00:34:31;;;;;;;2.67;1.67;;;;;;;3.68;71.22;97210.34;5031405;28;20406;-57
2021/11/20 00:36:57;;;;;;;3.85;2.13;;;;;;;3.57;70.96;97182.25;5032427;28;20108;-56
2021/11/20 00:39:26;;;;;;;1.90;1.60;;;;;;;3.62;71.16;97184.44;5031372;28;20041;-58
2021/11/20 00:41:53;;;;;;;3.22;1.80;;;;;;;3.38;71.32;97130.28;5031695;28;20026;-58
2021/11/20 00:44:19;;;;;;;3.90;1.77;;;;;;;3.52;70.91;97153.59;5031601;28;20033;-55
2021/11/20 00:46:46;;;;;;;2.38;1.58;;;;;;;3.52;71.16;97147.47;5032645;28;20057;-56
2021/11/20 00:49:12;;;;;;;3.78;1.80;;;;;;;3.42;70.99;97131.66;5031123;28;20026;-55
2021/11/20 00:51:38;;;;;;;2.38;1.83;;;;;;;3.48;70.90;97125.75;5031721;28;20332;-55
2021/11/20 00:54:05;;;;;;;2.60;1.83;;;;;;;3.45;71.14;97116.28;5031384;28;20495;-58
2021/11/20 00:56:32;;;;;;;2.60;1.80;;;;;;;3.40;71.20;97113.25;5029274;28;20033;-58
2021/11/20 00:58:59;;;;;;;3.35;2.20;;;;;;;3.33;72.03;97103.41;5032537;28;20099;-57
2021/11/20 01:01:30;;;;;;;3.15;1.90;;;;;;;3.44;71.36;97090.00;5031364;28;20033;-57
2021/11/20 01:03:56;;;;;;;2.70;1.70;;;;;;;3.38;71.17;97087.94;5031258;28;20052;-56
2021/11/20 01:06:22;;;;;;;2.42;1.60;;;;;;;3.37;71.42;97079.19;5029780;28;20055;-57
2021/11/20 01:08:50;;;;;;;2.67;1.70;;;;;;;3.36;71.93;97071.38;5032260;28;20022;-57
2021/11/20 01:11:32;;;;;;;3.65;1.50;;;;;;;3.42;71.49;97054.94;5031670;28;20083;-58
2021/11/20 01:14:00;;;;;;;2.95;1.50;;;;;;;3.36;71.35;97042.28;5030594;28;20121;-55
2021/11/20 01:16:27;;;;;;;2.22;1.50;;;;;;;3.24;71.50;97023.97;5030942;28;20039;-59
2021/11/20 01:18:53;;;;;;;1.95;1.45;;;;;;;3.29;70.84;97020.91;5032005;28;20021;-56
2021/11/20 01:21:19;;;;;;;1.83;1.40;;;;;;;3.18;71.18;97003.41;5031298;28;20087;-59
2021/11/20 01:23:46;;;;;;;2.67;1.23;;;;;;;3.22;71.82;97015.38;5031143;28;20099;-57
2021/11/20 01:26:13;;;;;;;4.13;1.65;;;;;;;3.19;71.68;97012.16;5030566;28;20450;-56
2021/11/20 01:28:42;;;;;;;2.28;1.20;;;;;;;3.18;72.34;96992.84;5030557;28;20049;-57
2021/11/20 01:31:11;;;;;;;1.92;1.30;;;;;;;3.11;72.34;96978.53;5032243;28;20044;-54
2021/11/20 01:33:39;;;;;;;2.65;1.35;;;;;;;3.13;71.93;96971.28;5030811;28;20029;-58
2021/11/20 01:36:06;;;;;;;2.25;1.50;;;;;;;3.13;72.24;96950.13;5030728;28;20044;-57
2021/11/20 01:38:32;;;;;;;1.88;1.30;;;;;;;3.13;72.54;96947.50;5030606;28;20492;-56
2021/11/20 01:40:58;;;;;;;2.13;1.27;;;;;;;3.12;72.49;96936.09;5032070;28;20053;-58
2021/11/20 01:43:24;;;;;;;1.60;1.33;;;;;;;3.04;72.81;96920.16;5030482;28;20558;-57
2021/11/20 01:45:58;;;;;;;2.15;1.10;;;;;;;3.20;72.49;96905.44;5031017;28;20105;-56
2021/11/20 01:48:44;;;;;;;1.23;1.00;;;;;;;3.27;72.70;96898.59;5030602;28;20025;-58
2021/11/20 01:51:25;;;;;;;7.22;1.30;;;;;;;3.25;72.31;96888.16;5031606;28;20500;-54
2021/11/20 01:54:24;;;;;;;2.10;1.40;;;;;;;3.32;72.29;96876.97;5030492;28;20363;-58
2021/11/20 01:57:01;;;;;;;1.85;1.17;;;;;;;3.34;72.86;96875.00;5019404;28;20613;-56
2021/11/20 01:59:38;;;;;;;2.05;1.17;;;;;;;3.37;71.66;96854.38;5030624;28;20030;-58
2021/11/20 02:02:17;;;;;;;1.30;0.82;;;;;;;3.35;72.05;96851.06;5031362;28;20159;-58
2021/11/20 02:04:54;;;;;;;2.05;1.15;;;;;;;3.34;71.96;96833.53;5030341;28;20037;-59
2021/11/20 02:07:34;;;;;;;1.45;0.90;;;;;;;3.12;71.62;96781.94;5030860;28;20500;-58
2021/11/20 02:10:15;;;;;;;2.80;0.90;;;;;;;3.38;72.00;96819.00;5034040;28;20036;-56
2021/11/20 02:12:45;;;;;;;2.38;1.00;;;;;;;3.35;72.25;96810.53;5035476;28;20108;-59
2021/11/20 02:15:17;;;;;;;1.70;0.80;;;;;;;3.30;71.95;96785.38;5034163;28;20448;-57
2021/11/20 02:17:52;;;;;;;2.08;1.08;;;;;;;3.41;72.11;96786.16;5034017;28;20098;-56
2021/11/20 02:20:52;;;;;;;1.77;1.17;;;;;;;3.44;72.41;96767.31;5033251;28;20415;-56
2021/11/20 02:23:18;;;;;;;1.63;0.90;;;;;;;3.43;71.65;96769.13;5035250;28;20038;-57
2021/11/20 02:25:43;;;;;;;1.48;1.10;;;;;;;3.42;72.08;96761.34;5033831;28;20041;-52
2021/11/20 02:28:10;;;;;;;1.55;1.08;;;;;;;3.44;71.65;96762.84;5034169;28;20390;-57
2021/11/20 02:30:37;;;;;;;1.00;0.90;;;;;;;3.43;71.58;96741.84;5034131;28;20391;-61
2021/11/20 02:33:07;;;;;;;1.63;0.75;;;;;;;3.45;71.17;96737.25;5034946;28;20040;-54
2021/11/20 02:35:46;;;;;;;1.70;0.90;;;;;;;3.52;71.52;96719.75;5033621;28;20033;-57
2021/11/20 02:38:25;;;;;;;1.10;0.70;;;;;;;3.53;71.27;96724.06;5034038;28;20167;-57
2021/11/20 02:40:51;;;;;;;0.88;0.77;;;;;;;3.40;71.07;96700.66;5033842;28;20067;-58
2021/11/20 02:43:18;;;;;;;1.27;0.82;;;;;;;3.42;71.76;96701.34;5034876;28;20029;-56
2021/11/20 02:45:50;;;;;;;0.98;0.80;;;;;;;3.52;71.02;96705.72;5034011;28;20033;-58
2021/11/20 02:48:16;;;;;;;0.70;0.60;;;;;;;3.48;71.03;96681.38;5034081;28;20030;-57
2021/11/20 02:51:07;;;;;;;1.00;0.57;;;;;;;3.44;71.17;96669.47;5033359;28;20021;-57
2021/11/20 02:53:49;;;;;;;1.40;0.90;;;;;;;3.55;70.79;96660.44;5034173;28;20040;-55
2021/11/20 02:56:19;;;;;;;1.10;0.88;;;;;;;3.44;70.40;96666.81;5033903;28;20036;-57
2021/11/20 02:58:47;;;;;;;1.00;0.70;;;;;;;3.11;70.28;96627.78;5033792;28;20049;-58
2021/11/20 03:01:14;;;;;;;0.73;0.65;;;;;;;3.23;70.36;96646.03;5032043;28;20030;-57
2021/11/20 03:03:40;;;;;;;0.80;0.65;;;;;;;3.08;71.56;96640.47;5033120;28;20057;-57
2021/11/20 03:06:06;;;;;;;1.40;0.73;;;;;;;3.06;71.39;96626.59;5034743;28;20037;-58
2021/11/20 03:08:32;;;;;;;0.98;0.70;;;;;;;2.98;71.22;96615.00;5040558;28;20063;-56
2021/11/20 03:10:58;;;;;;;0.90;0.70;;;;;;;2.89;71.12;96613.25;5052736;28;20033;-57
2021/11/20 03:13:24;;;;;;;1.42;0.95;;;;;;;2.82;71.93;96607.78;5053178;28;20457;-58
2021/11/20 03:15:49;;;;;;;1.02;0.85;;;;;;;2.78;71.98;96592.38;5053333;28;20029;-57
2021/11/20 03:18:15;;;;;;;2.17;0.80;;;;;;;2.73;72.19;96583.13;5051519;28;20167;-55
2021/11/20 03:20:42;;;;;;;0.85;0.52;;;;;;;2.69;72.21;96579.13;5032517;28;20124;-57
2021/11/20 03:23:20;;;;;;;1.10;0.77;;;;;;;2.71;72.40;96569.25;5032937;28;20030;-56
2021/11/20 03:25:46;;;;;;;1.73;0.60;;;;;;;2.67;72.02;96562.63;5031861;28;20037;-59
2021/11/20 03:28:12;;;;;;;0.95;0.73;;;;;;;2.63;72.49;96558.59;5033160;28;20045;-57
2021/11/20 03:30:38;;;;;;;1.30;0.80;;;;;;;2.59;72.56;96549.34;5033339;28;20030;-55
2021/11/20 03:33:04;;;;;;;0.80;0.70;;;;;;;2.57;73.26;96546.03;5032603;28;20025;-58
2021/11/20 03:35:31;;;;;;;1.45;0.80;;;;;;;2.54;73.23;96535.75;5032901;28;20029;-56
2021/11/20 03:37:57;;;;;;;0.82;0.70;;;;;;;2.49;72.83;96512.47;5033092;28;20029;-59
2021/11/20 03:40:23;;;;;;;0.63;0.57;;;;;;;2.51;73.28;96525.53;5033749;28;20199;-57
2021/11/20 03:42:49;;;;;;;1.20;0.90;;;;;;;2.49;72.88;96506.34;5032527;28;20034;-56
2021/11/20 03:45:18;;;;;;;1.92;0.63;;;;;;;2.43;73.52;96498.09;5032476;28;20689;-57
2021/11/20 03:47:44;;;;;;;1.20;0.80;;;;;;;2.42;73.42;96490.31;5032568;28;20044;-58
2021/11/20 03:50:13;;;;;;;1.25;0.80;;;;;;;2.38;74.03;96479.22;5036393;28;20037;-57
2021/11/20 03:52:39;;;;;;;0.90;0.80;;;;;;;2.36;73.93;96467.97;5052531;28;20060;-55
2021/11/20 03:55:07;;;;;;;0.98;0.60;;;;;;;2.32;73.52;96469.28;5052162;28;20036;-58
2021/11/20 03:57:32;;;;;;;1.42;0.70;;;;;;;2.29;74.18;96466.94;5052097;28;20035;-59
2021/11/20 03:59:58;;;;;;;0.82;0.70;;;;;;;2.04;74.10;96414.00;5052374;28;20029;-60
2021/11/20 04:02:24;;;;;;;1.02;0.80;;;;;;;2.27;74.31;96440.69;5050696;28;20086;-55
2021/11/20 04:04:49;;;;;;;1.10;0.82;;;;;;;2.27;74.47;96431.97;5051767;28;20166;-58
2021/11/20 04:07:15;;;;;;;1.45;1.10;;;;;;;2.26;74.73;96419.75;5052026;28;20039;-57
2021/11/20 04:09:40;;;;;;;1.65;0.93;;;;;;;2.09;74.72;96380.06;5051955;28;20109;-54
2021/11/20 04:12:07;;;;;;;1.42;0.93;;;;;;;2.30;74.35;96413.16;5050037;28;20087;-56
2021/11/20 04:14:33;;;;;;;0.77;0.70;;;;;;;2.06;74.59;96367.19;5051557;28;20078;-55
2021/11/20 04:16:59;;;;;;;1.17;0.88;;;;;;;2.32;74.42;96384.00;5052349;28;20457;-55
2021/11/20 04:19:24;;;;;;;2.75;1.10;;;;;;;2.17;74.61;96365.25;5051611;28;20028;-55
2021/11/20 04:21:52;;;;;;;1.73;1.00;;;;;;;2.27;75.08;96387.09;5045761;28;20141;-56
2021/11/20 04:24:18;;;;;;;1.55;1.00;;;;;;;2.29;75.06;96371.91;5031965;28;20031;-54
2021/11/20 04:26:45;;;;;;;1.75;1.20;;;;;;;2.27;75.46;96366.78;5031904;28;20034;-58
2021/11/20 04:29:11;;;;;;;2.45;1.83;;;;;;;2.31;75.10;96356.75;5030901;28;20175;-55
2021/11/20 04:31:36;;;;;;;3.22;1.90;;;;;;;2.33;75.27;96353.97;5031085;28;20585;-53
2021/11/20 04:34:03;;;;;;;2.08;1.10;;;;;;;2.35;74.97;96352.81;5051761;28;20124;-57
2021/11/20 04:36:29;;;;;;;1.83;1.20;;;;;;;2.15;74.91;96308.16;5051298;28;20456;-58
2021/11/20 04:38:54;;;;;;;1.67;1.30;;;;;;;2.38;74.65;96336.66;5051197;28;20055;-57
2021/11/20 04:41:21;;;;;;;2.10;1.40;;;;;;;2.32;74.88;96336.47;5051395;28;20146;-57
2021/11/20 04:43:48;;;;;;;2.83;1.25;;;;;;;2.39;75.15;96333.03;5049700;28;20024;-56
2021/11/20 04:46:15;;;;;;;3.17;1.60;;;;;;;2.38;74.73;96320.81;5049799;28;20056;-56
2021/11/20 04:48:41;;;;;;;3.08;1.50;;;;;;;2.37;75.40;96321.78;5051116;28;20036;-58
2021/11/20 04:51:07;;;;;;;1.25;1.15;;;;;;;2.43;75.32;96318.53;5050023;28;20040;-53
2021/11/20 04:53:37;;;;;;;2.00;1.35;;;;;;;2.48;75.11;96309.31;5049664;28;20036;-56
2021/11/20 04:56:03;;;;;;;3.53;1.38;;;;;;;2.49;74.59;96305.69;5049335;28;20025;-56
2021/11/20 04:58:30;;;;;;;2.47;1.38;;;;;;;2.44;74.90;96309.63;5051477;28;20029;-58
2021/11/20 05:00:57;;;;;;;2.47;1.60;;;;;;;2.40;75.15;96291.63;5051103;28;20064;-55
2021/11/20 05:03:24;;;;;;;2.10;1.40;;;;;;;2.44;75.48;96295.59;5049610;28;20036;-58
2021/11/20 05:05:52;;;;;;;2.00;1.38;;;;;;;2.49;75.84;96284.56;5050758;28;20041;-57
2021/11/20 05:08:20;;;;;;;5.22;1.88;;;;;;;2.47;75.90;96274.13;5050843;28;20025;-57
2021/11/20 05:10:47;;;;;;;1.73;1.40;;;;;;;2.54;75.24;96283.09;5050744;28;20037;-58
2021/11/20 05:13:13;;;;;;;2.15;1.25;;;;;;;2.56;74.88;96275.84;5051020;28;20029;-59
2021/11/20 05:15:42;;;;;;;3.22;1.38;;;;;;;2.58;75.63;96275.66;5048451;28;20473;-58
2021/11/20 05:18:08;;;;;;;3.83;1.35;;;;;;;2.57;75.35;96260.81;5050766;28;20063;-57
2021/11/20 05:20:34;;;;;;;3.13;1.30;;;;;;;2.53;74.79;96248.91;5050989;28;20036;-57
2021/11/20 05:23:00;;;;;;;2.40;1.40;;;;;;;2.54;75.04;96266.41;5051069;28;20025;-55
2021/11/20 05:25:26;;;;;;;2.03;1.20;;;;;;;2.35;75.60;96227.91;5048596;28;20090;-56
2021/11/20 05:27:54;;;;;;;1.77;1.38;;;;;;;2.54;75.45;96254.03;5050449;28;20345;-57
2021/11/20 05:30:29;;;;;;;2.03;1.35;;;;;;;2.55;75.30;96244.28;5050785;28;20098;-59
2021/11/20 05:32:57;;;;;;;2.67;1.33;;;;;;;2.57;75.38;96234.38;5050806;28;20043;-56
2021/11/20 05:35:24;;;;;;;5.15;1.08;;;;;;;2.57;75.06;96235.22;5048599;28;20029;-58
2021/11/20 05:37:50;;;;;;;1.75;1.25;;;;;;;2.62;75.23;96226.00;5050402;28;20041;-56
2021/11/20 05:40:17;;;;;;;2.60;1.60;;;;;;;2.62;75.59;96218.06;5050295;28;20064;-56
2021/11/20 05:42:48;;;;;;;3.17;1.55;;;;;;;2.65;75.32;96226.50;5052403;28;20049;-60
2021/11/20 05:45:15;;;;;;;4.47;1.45;;;;;;;2.57;75.76;96224.66;5054658;28;20477;-56
2021/11/20 05:47:41;;;;;;;3.80;1.35;;;;;;;2.58;75.75;96215.75;5052831;28;20025;-60
2021/11/20 05:50:08;;;;;;;2.67;1.50;;;;;;;2.61;76.07;96209.31;5054822;28;20044;-57
2021/11/20 05:52:34;;;;;;;3.33;1.67;;;;;;;2.62;76.21;96200.38;5054412;28;20035;-57
2021/11/20 05:55:00;;;;;;;5.25;1.52;;;;;;;2.64;75.90;96197.59;5054606;28;20039;-57
2021/11/20 05:57:26;;;;;;;3.63;1.95;;;;;;;2.62;75.96;96194.28;5052996;28;20029;-57
2021/11/20 05:59:52;;;;;;;3.05;1.67;;;;;;;2.66;76.21;96188.53;5054199;28;20082;-57
2021/11/20 06:02:18;;;;;;;5.97;2.00;;;;;;;2.68;76.49;96189.19;5054277;28;20040;-58
2021/11/20 06:04:44;;;;;;;2.25;1.60;;;;;;;2.75;76.47;96183.25;5054287;28;20080;-58
2021/11/20 06:07:13;;;;;;;3.53;1.50;;;;;;;2.76;76.63;96177.78;5052466;28;20025;-58
2021/11/20 06:09:40;;;;;;;3.20;1.65;;;;;;;2.87;77.13;96174.81;5053798;28;20116;-56
2021/11/20 06:12:07;;;;;;;5.47;1.92;;;;;;;2.95;77.62;96174.00;5054867;28;20436;-54
2021/11/20 06:14:32;;;;;;;3.17;1.73;;;;;;;3.03;76.73;96167.88;5053834;28;20528;-56
2021/11/20 06:16:58;;;;;;;3.20;1.40;;;;;;;3.03;76.46;96154.69;5053973;28;20025;-56
2021/11/20 06:19:23;;;;;;;3.05;1.58;;;;;;;3.13;76.77;96160.59;5052167;28;20036;-58
2021/11/20 06:21:49;;;;;;;3.08;1.80;;;;;;;3.17;76.01;96176.97;5053761;28;20037;-56
2021/11/20 06:24:15;;;;;;;3.25;1.85;;;;;;;3.17;76.40;96166.38;5053734;28;20043;-57
2021/11/20 06:26:41;;;;;;;3.72;1.88;;;;;;;3.12;75.57;96158.94;5053710;28;20476;-57
2021/11/20 06:29:06;;;;;;;4.57;2.20;;;;;;;3.07;75.50;96142.78;5052657;28;20052;-55
2021/11/20 06:31:32;;;;;;;3.63;1.90;;;;;;;3.19;76.89;96161.75;5052071;28;20045;-57
2021/11/20 06:34:00;;;;;;;3.92;1.88;;;;;;;3.21;75.69;96162.41;5053220;28;20033;-57
2021/11/20 06:36:27;;;;;;;4.97;2.88;;;;;;;3.24;76.82;96154.13;5053486;28;20059;-59
2021/11/20 06:38:53;;;;;;;4.78;1.85;;;;;;;3.28;76.29;96152.81;5048622;28;20040;-60
2021/11/20 06:41:19;;;;;;;2.58;1.90;;;;;;;3.33;76.84;96151.47;5042905;28;20021;-61
2021/11/20 06:43:45;;;;;;;4.35;2.10;;;;;;;3.32;76.77;96141.88;5041886;28;20086;-60
2021/11/20 06:46:13;;;;;;;3.70;2.30;;;;;;;3.37;76.31;96150.13;5042365;28;20036;-60
2021/11/20 06:48:40;;;;;;;3.00;2.20;;;;;;;3.33;76.26;96128.50;5043202;28;20067;-62
2021/11/20 06:51:08;;;;;;;5.43;2.10;;;;;;;3.40;76.36;96145.34;5042821;28;20041;-60
2021/11/20 06:53:35;;;;;;;7.55;2.50;;;;;;;3.19;76.04;96111.53;5040466;28;20030;-60
2021/11/20 06:56:02;;;;;;;5.03;2.08;;;;;;;3.38;75.81;96141.22;5043221;28;20034;-58
2021/11/20 07:01:06;;;;;;;6.85;2.47;;;;;;;3.43;76.95;96136.25;5042608;28;20044;-61
2021/11/20 07:03:37;;;;;;;2.85;2.20;;;;;;;3.54;77.49;96140.34;5041619;28;20037;-61
2021/11/20 07:06:12;;;;;;;3.75;2.45;;;;;;;3.58;76.20;96144.28;5040462;28;20495;-60
2021/11/20 07:08:38;;;;;;;4.53;2.40;;;;;;;3.59;76.46;96133.53;5039467;28;20017;-60
2021/11/20 07:11:04;;;;;;;6.95;2.78;;;;;;;3.70;77.12;96134.16;5041281;28;20045;-61
2021/11/20 07:13:30;;;;;;;5.93;2.80;;;;;;;3.41;76.78;96080.06;5052978;28;20036;-61
2021/11/20 07:15:56;;;;;;;4.97;2.70;;;;;;;3.77;75.99;96140.41;5053089;28;20098;-62
2021/11/20 07:18:23;;;;;;;5.18;2.75;;;;;;;3.79;76.24;96135.75;5053390;28;20032;-59
2021/11/20 07:20:49;;;;;;;9.18;2.60;;;;;;;3.83;76.37;96139.72;5050115;28;20071;-63
2021/11/20 07:23:15;;;;;;;5.82;2.15;;;;;;;3.62;76.02;96091.84;5051935;28;20549;-63
2021/11/20 07:25:41;;;;;;;5.13;2.30;;;;;;;3.82;76.13;96137.25;5035594;28;20116;-61
2021/11/20 07:28:08;;;;;;;4.47;2.20;;;;;;;3.81;76.39;96132.97;5052670;28;20053;-61
2021/11/20 07:30:36;;;;;;;8.00;2.45;;;;;;;3.81;76.88;96131.13;5052541;28;20091;-62
2021/11/20 07:33:03;;;;;;;4.57;2.38;;;;;;;3.66;77.10;96103.75;5050653;28;20025;-60
2021/11/20 07:35:38;;;;;;;4.90;2.05;;;;;;;3.97;76.27;96140.00;5051923;28;20077;-62
2021/11/20 07:38:06;;;;;;;3.80;2.50;;;;;;;4.00;76.40;96144.94;5052228;28;20086;-60
2021/11/20 07:40:35;;;;;;;5.63;2.10;;;;;;;3.98;76.21;96141.63;5051833;28;20028;-62
2021/11/20 07:43:01;;;;;;;4.35;2.28;;;;;;;4.00;76.21;96151.06;5049913;28;20441;-60
2021/11/20 07:45:27;;;;;;;6.75;2.88;;;;;;;4.01;76.06;96151.88;5052538;28;20453;-61
2021/11/20 07:47:52;;;;;;;7.82;2.38;;;;;;;3.97;75.78;96150.56;5052215;28;20103;-61
2021/11/20 07:50:21;;;;;;;4.88;2.20;;;;;;;3.97;76.39;96155.88;5050678;28;20055;-61
2021/11/20 07:52:47;;;;;;;3.42;2.28;;;;;;;3.97;77.08;96154.03;5050769;28;20032;-60
2021/11/20 07:55:15;;;;;;;3.10;2.13;;;;;;;4.02;76.98;96153.53;5051934;28;20033;-60
2021/11/20 07:57:41;;;;;;;4.82;2.05;;;;;;;4.12;76.33;96150.66;5052245;28;20029;-58
2021/11/20 08:00:17;;;;;;;3.15;1.92;;;;;;;4.29;77.92;96154.03;5052625;28;20029;-61
2021/11/20 08:02:42;;;;;;;4.55;2.20;;;;;;;4.35;76.77;96153.34;5050484;28;20033;-62
2021/11/20 08:05:09;;;;;;;3.47;2.05;;;;;;;4.35;76.54;96134.81;5051421;28;20044;-61
2021/11/20 08:07:36;;;;;;;3.42;1.83;;;;;;;4.43;75.28;96150.63;5051380;28;20040;-61
2021/11/20 08:10:06;;;;;;;5.38;1.88;;;;;;;4.48;76.45;96154.59;5031833;28;20052;-62
2021/11/20 08:12:32;;;;;;;2.95;1.92;;;;;;;4.48;76.57;96168.66;5030495;28;20036;-59
2021/11/20 08:14:58;;;;;;;2.25;1.67;;;;;;;4.49;75.11;96161.53;5046718;28;20033;-60
2021/11/20 08:17:23;;;;;;;2.75;1.65;;;;;;;4.45;76.12;96169.81;5051580;28;20036;-61
2021/11/20 08:19:49;;;;;;;4.70;1.42;;;;;;;4.45;76.19;96183.06;5051330;28;20097;-60
2021/11/20 08:22:14;;;;;;;2.10;1.30;;;;;;;4.45;75.47;96172.47;5050550;28;20422;-66
2021/11/20 08:24:40;;;;;;;3.08;1.60;;;;;;;4.34;75.27;96178.19;5048780;28;20469;-60
2021/11/20 08:27:08;;;;;;;4.63;1.50;;;;;;;4.25;76.53;96182.72;5049101;28;20089;-60
2021/11/20 08:29:37;;;;;;;3.25;1.50;;;;;;;4.16;76.04;96178.44;5050107;28;20268;-63
2021/11/20 08:32:04;;;;;;;2.38;1.33;;;;;;;4.10;76.64;96187.06;5050502;28;20106;-66
2021/11/20 08:34:31;;;;;;;1.80;1.60;;;;;;;3.93;77.35;96159.88;5047153;28;20028;-65
2021/11/20 08:37:00;;;;;;;2.63;1.65;;;;;;;4.18;76.10;96204.75;5049802;28;20041;-57
2021/11/20 08:39:27;;;;;;;4.45;1.70;;;;;;;4.25;76.12;96208.34;5050236;28;20597;-63
2021/11/20 08:41:53;;;;;;;3.08;1.45;;;;;;;4.21;77.09;96199.91;5050671;28;20035;-63
2021/11/20 08:44:19;;;;;;;2.30;1.50;;;;;;;4.29;76.90;96207.84;5032596;28;20123;-62
2021/11/20 08:46:46;;;;;;;1.48;1.25;;;;;;;4.33;76.53;96203.00;5047221;28;20087;-64
2021/11/20 08:49:13;;;;;;;1.70;1.20;;;;;;;4.27;74.84;96207.19;5050552;28;20543;-61
2021/11/20 08:51:40;;;;;;;2.65;1.48;;;;;;;4.16;74.96;96213.69;5050290;28;20033;-62
2021/11/20 08:54:06;;;;;;;2.17;1.40;;;;;;;3.99;75.27;96212.94;5050161;28;20043;-58
2021/11/20 08:56:34;;;;;;;2.92;1.40;;;;;;;3.98;76.49;96215.75;5048006;28;20028;-58
2021/11/20 08:58:59;;;;;;;3.58;1.30;;;;;;;4.00;76.88;96216.41;5050108;28;20033;-65
2021/11/20 09:01:31;;;;;;;2.22;1.90;;;;;;;4.09;76.13;96225.94;5050893;28;20028;-63
2021/11/20 09:03:59;;;;;;;2.15;1.60;;;;;;;4.11;75.84;96231.09;5051115;28;20132;-60
2021/11/20 09:06:37;;;;;;;3.15;1.95;;;;;;;4.20;76.31;96239.81;5048841;28;20106;-61
2021/11/20 09:09:15;;;;;;;2.45;1.48;;;;;;;4.23;76.11;96237.66;5050900;28;20068;-63
2021/11/20 09:12:03;;;;;;;3.50;1.80;;;;;;;4.13;76.26;96216.69;5033735;28;20029;-63
2021/11/20 09:14:44;;;;;;;4.93;1.80;;;;;;;4.31;76.30;96250.84;5042338;28;20378;-60
2021/11/20 09:17:12;;;;;;;4.03;2.30;;;;;;;4.06;75.47;96223.66;5041325;28;20115;-63
2021/11/20 09:19:38;;;;;;;3.25;1.92;;;;;;;4.16;75.21;96249.91;5028076;28;20061;-61
2021/11/20 09:22:05;;;;;;;2.10;1.58;;;;;;;4.19;76.20;96259.34;5030402;28;20036;-62
2021/11/20 09:24:35;;;;;;;4.60;1.70;;;;;;;4.24;75.44;96271.09;5030169;28;20451;-60
2021/11/20 09:27:01;;;;;;;2.45;1.80;;;;;;;4.14;74.49;96258.06;5049779;28;20036;-62
2021/11/20 09:29:29;;;;;;;3.83;1.73;;;;;;;4.14;75.30;96279.22;5037486;28;20160;-62
2021/11/20 09:31:55;;;;;;;3.55;1.80;;;;;;;4.08;75.19;96277.25;5041641;28;20037;-61
2021/11/20 09:34:22;;;;;;;5.00;1.90;;;;;;;4.01;75.21;96286.88;5041150;28;20052;-63
2021/11/20 09:36:51;;;;;;;3.42;1.88;;;;;;;3.94;74.38;96289.34;5038915;28;20459;-64
2021/11/20 09:39:19;;;;;;;4.13;1.63;;;;;;;3.86;75.29;96287.59;5036748;28;20440;-63
2021/11/20 09:42:12;;;;;;;3.53;1.75;;;;;;;3.99;76.41;96297.66;5039707;28;20033;-63
2021/11/20 09:44:42;;;;;;;4.28;2.67;;;;;;;3.84;75.37;96305.44;5039996;28;20036;-63
2021/11/20 09:47:30;;;;;;;3.60;2.35;;;;;;;3.84;75.22;96317.84;5039328;28;20090;-61
2021/11/20 09:50:12;;;;;;;3.83;2.33;;;;;;;3.54;75.55;96289.28;5039233;28;20029;-63
2021/11/20 09:52:39;;;;;;;2.83;1.85;;;;;;;3.74;75.25;96331.25;5035960;28;20717;-65
2021/11/20 09:55:07;;;;;;;2.75;1.90;;;;;;;3.66;75.65;96334.72;5038762;28;20064;-61
2021/11/20 09:57:37;;;;;;;4.13;1.80;;;;;;;3.63;75.93;96340.34;5034665;28;20049;-62
2021/11/20 10:00:27;;;;;;;3.88;2.13;;;;;;;3.67;75.65;96338.22;5033372;28;20032;-63
2021/11/20 10:03:00;;;;;;;3.67;1.80;;;;;;;3.73;75.68;96356.06;5049303;28;20120;-60
2021/11/20 10:05:36;;;;;;;3.22;2.10;;;;;;;3.79;76.24;96365.97;5045995;28;20076;-63
2021/11/20 10:08:02;;;;;;;2.70;1.80;;;;;;;3.82;75.45;96362.19;5040782;28;20032;-59
2021/11/20 10:10:40;;;;;;;2.92;1.40;;;;;;;3.69;74.98;96346.81;5038944;28;20473;-58
2021/11/20 10:13:20;;;;;;;1.58;1.25;;;;;;;3.95;74.71;96377.53;5029724;28;20057;-63
2021/11/20 10:16:07;;;;;;;1.45;1.00;;;;;;;3.94;74.42;96383.84;5029916;28;20117;-71
2021/11/20 10:19:10;;;;;;;2.28;1.00;;;;;;;3.91;74.67;96384.97;5037153;28;20071;-59
2021/11/20 10:21:54;;;;;;;4.30;1.50;;;;;;;3.88;75.05;96391.44;5040772;28;20044;-52
2021/11/20 10:24:37;;;;;;;3.03;1.25;;;;;;;3.96;74.63;96397.72;5056327;28;20040;-61
2021/11/20 10:27:35;;;;;;;1.70;1.25;;;;;;;3.92;73.99;96404.34;5058824;28;20488;-59
2021/11/20 10:30:19;;;;;;;2.75;1.55;;;;;;;3.85;74.39;96412.13;5056476;28;20090;-58
2021/11/20 10:32:50;;;;;;;2.70;1.60;;;;;;;3.88;74.41;96423.22;5053914;28;20385;-64
2021/11/20 10:35:30;;;;;;;2.40;1.23;;;;;;;3.84;74.88;96426.34;5069707;28;20037;-60
2021/11/20 10:38:12;;;;;;;2.83;1.20;;;;;;;3.79;74.21;96433.97;5062005;28;20503;-60
2021/11/20 10:40:43;;;;;;;2.67;1.00;;;;;;;3.53;74.09;96409.28;5058683;28;20025;-62
2021/11/20 10:43:24;;;;;;;2.80;1.35;;;;;;;3.71;74.67;96453.28;5037102;28;20025;-65
2021/11/20 10:45:53;;;;;;;3.30;1.42;;;;;;;3.67;74.17;96459.91;5059282;28;20067;-58
2021/11/20 10:48:31;;;;;;;2.03;1.23;;;;;;;3.68;74.25;96465.03;5059714;28;20057;-63
2021/11/20 10:51:22;;;;;;;2.35;1.10;;;;;;;3.66;74.32;96474.13;5068376;28;20037;-61
2021/11/20 10:53:56;;;;;;;1.95;1.23;;;;;;;3.59;74.77;96473.94;5050140;28;20111;-63
2021/11/20 10:56:31;;;;;;;3.90;1.13;;;;;;;3.60;74.46;96488.81;5060289;28;20072;-61
2021/11/20 10:59:26;;;;;;;2.78;1.20;;;;;;;3.69;75.05;96497.63;5069323;28;20525;-62
2021/11/20 11:02:03;;;;;;;1.85;0.95;;;;;;;3.67;74.33;96504.88;5024067;28;20114;-62
2021/11/20 11:04:43;;;;;;;2.03;0.90;;;;;;;3.63;73.69;96500.91;5060278;28;20028;-63
2021/11/20 11:07:30;;;;;;;1.73;0.68;;;;;;;3.72;74.66;96513.16;5055812;28;20064;-63
2021/11/20 11:09:58;;;;;;;1.23;0.90;;;;;;;3.70;73.37;96518.59;5062024;28;20385;-61
2021/11/20 11:12:54;;;;;;;1.67;0.90;;;;;;;3.80;73.45;96523.75;5063356;28;20028;-61
2021/11/20 11:15:38;;;;;;;1.35;1.00;;;;;;;3.72;73.42;96529.84;5038113;28;20524;-62
2021/11/20 11:18:41;;;;;;;1.05;0.60;;;;;;;3.78;73.71;96535.50;5042993;28;20037;-59
2021/11/20 11:21:55;;;;;;;1.73;0.80;;;;;;;3.79;73.13;96545.91;5062251;28;20047;-59
2021/11/20 11:24:58;;;;;;;1.25;0.88;;;;;;;3.83;73.79;96560.47;5032733;28;20132;-59
2021/11/20 11:27:30;;;;;;;1.17;0.65;;;;;;;3.73;73.18;96563.25;5067397;28;20551;-59
2021/11/20 11:30:02;;;;;;;1.40;0.80;;;;;;;3.65;72.74;96576.47;5060277;28;20052;-58
2021/11/20 11:32:32;;;;;;;1.20;0.82;;;;;;;3.44;73.38;96540.69;5048253;28;20064;-61
2021/11/20 11:35:09;;;;;;;1.58;0.70;;;;;;;3.62;73.05;96584.72;5045883;28;20025;-65
2021/11/20 11:37:40;;;;;;;2.40;0.90;;;;;;;3.56;72.25;96595.97;5056719;28;20032;-60
2021/11/20 11:40:33;;;;;;;1.30;0.70;;;;;;;3.28;73.17;96564.44;5060556;28;20029;-60
2021/11/20 11:43:24;;;;;;;1.42;0.90;;;;;;;3.57;74.12;96618.78;5055701;28;20059;-59
2021/11/20 11:46:22;;;;;;;2.60;1.10;;;;;;;3.58;73.46;96626.53;5050978;28;20437;-58
2021/11/20 11:49:00;;;;;;;3.63;1.10;;;;;;;3.58;73.33;96633.66;5045219;28;20060;-59
2021/11/20 11:51:48;;;;;;;2.28;1.23;;;;;;;3.57;73.37;96643.41;5045760;28;20051;-59
2021/11/20 11:54:16;;;;;;;3.03;1.38;;;;;;;3.53;73.88;96654.47;5042513;28;20063;-61
2021/11/20 11:56:59;;;;;;;3.00;1.02;;;;;;;3.52;73.50;96653.63;5042381;28;20166;-61
2021/11/20 11:59:43;;;;;;;2.67;1.27;;;;;;;3.50;73.24;96660.91;5046243;28;20041;-62
2021/11/20 12:02:12;;;;;;;1.67;0.90;;;;;;;3.45;73.66;96671.13;5039366;28;20075;-59